Time;durP1;ratioP1;P1;durP2;ratioP2;P2;SDS_P1;SDS_P2;PMS_P1;PMS_P2;Temp;Humidity;BMP_temperature;BMP_pressure;BME280_temperature;BME280_humidity;BME280_pressure;Samples;Min_cycle;Max_cycle;Signal;HPM_P1;HPM_P2
2023/09/14 00:01:49;;;;;;;0.50;0.40;;;;;;;20.45;68.78;95608.09;5071598;28;20441;-58
2023/09/14 00:04:17;;;;;;;0.40;0.20;;;;;;;20.55;68.61;95607.72;5070288;28;20437;-58
2023/09/14 00:06:46;;;;;;;0.60;0.50;;;;;;;20.58;68.37;95602.47;5071090;28;20537;-58
2023/09/14 00:09:14;;;;;;;0.40;0.30;;;;;;;20.50;69.36;95605.22;5071024;28;20480;-57
2023/09/14 00:11:43;;;;;;;0.40;0.30;;;;;;;20.11;71.40;95598.25;5071586;28;20809;-58
2023/09/14 00:14:14;;;;;;;0.70;0.50;;;;;;;19.77;73.39;95604.50;5071226;28;20568;-58
2023/09/14 00:16:42;;;;;;;0.70;0.50;;;;;;;19.54;73.86;95557.41;5071536;28;20968;-58
2023/09/14 00:19:11;;;;;;;0.50;0.30;;;;;;;19.88;73.19;95607.66;5070359;28;20469;-58
2023/09/14 00:21:42;;;;;;;0.77;0.30;;;;;;;20.07;72.22;95602.66;5070907;28;20893;-58
2023/09/14 00:24:10;;;;;;;0.40;0.30;;;;;;;20.25;70.97;95599.63;5070952;28;20476;-58
2023/09/14 00:26:39;;;;;;;0.50;0.30;;;;;;;20.32;71.14;95603.72;5070976;28;20444;-57
2023/09/14 00:29:07;;;;;;;2.40;0.40;;;;;;;20.30;70.84;95601.34;5071028;28;20930;-57
2023/09/14 00:31:38;;;;;;;0.40;0.30;;;;;;;20.38;70.72;95586.28;5070727;28;20492;-57
2023/09/14 00:34:07;;;;;;;0.40;0.20;;;;;;;20.09;72.17;95579.72;5074254;28;20507;-57
2023/09/14 00:36:35;;;;;;;0.50;0.30;;;;;;;20.07;71.68;95591.91;5074450;28;20460;-57
2023/09/14 00:39:04;;;;;;;0.77;0.50;;;;;;;20.11;72.06;95599.00;5074001;28;21050;-58
2023/09/14 00:41:33;;;;;;;0.40;0.30;;;;;;;20.15;71.18;95602.66;5073242;28;21026;-57
2023/09/14 00:44:01;;;;;;;0.47;0.30;;;;;;;20.01;72.12;95593.22;5074647;28;20441;-57
2023/09/14 00:46:30;;;;;;;0.40;0.30;;;;;;;19.84;72.90;95555.59;5074365;28;20887;-58
2023/09/14 00:49:02;;;;;;;0.40;0.30;;;;;;;20.13;72.64;95591.44;5074352;28;20451;-57
2023/09/14 00:51:30;;;;;;;0.50;0.30;;;;;;;20.06;72.57;95588.41;5074116;28;20441;-57
2023/09/14 00:54:00;;;;;;;0.60;0.50;;;;;;;20.06;72.59;95590.34;5074353;28;20473;-56
2023/09/14 00:56:29;;;;;;;0.50;0.30;;;;;;;19.95;73.84;95589.91;5073888;28;20441;-57
2023/09/14 00:58:57;;;;;;;0.40;0.20;;;;;;;19.95;73.64;95592.59;5074374;28;20437;-56
2023/09/14 01:01:26;;;;;;;0.40;0.30;;;;;;;19.95;73.21;95595.28;5047961;28;20456;-57
2023/09/14 01:03:55;;;;;;;0.50;0.30;;;;;;;20.08;72.13;95588.91;5074083;28;20463;-56
2023/09/14 01:06:25;;;;;;;0.40;0.30;;;;;;;19.91;72.76;95578.19;5073243;28;20477;-57
2023/09/14 01:08:54;;;;;;;0.40;0.20;;;;;;;20.06;72.07;95590.34;5074166;28;20524;-56
2023/09/14 01:11:22;;;;;;;0.47;0.30;;;;;;;19.98;72.42;95591.94;5074081;28;20468;-56
2023/09/14 01:14:04;;;;;;;0.40;0.20;;;;;;;19.56;75.77;95593.63;5073117;28;20491;-56
2023/09/14 01:16:39;;;;;;;0.40;0.30;;;;;;;19.50;76.70;95597.59;5074121;28;20524;-56
2023/09/14 01:19:23;;;;;;;0.50;0.30;;;;;;;19.66;75.54;95587.13;5073603;28;20444;-57
2023/09/14 01:22:16;;;;;;;0.40;0.30;;;;;;;19.73;74.86;95594.72;5073190;28;20441;-57
2023/09/14 01:28:09;;;;;;;0.50;0.50;;;;;;;19.57;76.29;95589.03;5060122;28;20472;-57
2023/09/14 01:30:38;;;;;;;0.50;0.30;;;;;;;19.54;76.51;95586.97;5073772;28;20429;-56
2023/09/14 01:33:08;;;;;;;0.80;0.40;;;;;;;19.62;75.49;95591.56;5071999;28;20438;-56
2023/09/14 01:35:42;;;;;;;0.70;0.40;;;;;;;19.53;77.24;95588.88;5073090;28;21043;-57
2023/09/14 01:38:11;;;;;;;0.50;0.27;;;;;;;19.47;77.58;95584.00;5073594;28;20524;-56
2023/09/14 01:40:45;;;;;;;0.40;0.30;;;;;;;18.78;83.16;95586.66;5073542;28;20769;-56
2023/09/14 01:43:15;;;;;;;0.60;0.40;;;;;;;18.90;83.71;95588.69;5073005;28;20445;-56
2023/09/14 01:45:45;;;;;;;0.50;0.30;;;;;;;19.21;80.41;95588.56;5073156;28;20499;-57
2023/09/14 01:48:17;;;;;;;0.50;0.30;;;;;;;19.35;79.09;95591.88;5072787;28;20956;-56
2023/09/14 01:50:45;;;;;;;0.90;0.50;;;;;;;19.31;80.08;95590.91;5073638;28;20601;-56
2023/09/14 01:53:14;;;;;;;0.60;0.30;;;;;;;19.40;78.56;95578.31;5072617;28;20536;-57
2023/09/14 01:55:42;;;;;;;0.40;0.30;;;;;;;18.92;80.59;95544.31;5072980;28;20835;-56
2023/09/14 01:58:12;;;;;;;0.40;0.30;;;;;;;19.35;79.39;95589.19;5072788;28;20437;-57
2023/09/14 02:00:41;;;;;;;0.40;0.20;;;;;;;19.30;79.95;95582.06;5073179;28;20884;-56
2023/09/14 02:03:10;;;;;;;0.40;0.30;;;;;;;19.14;80.82;95585.56;5072932;28;20473;-57
2023/09/14 02:05:40;;;;;;;0.50;0.30;;;;;;;19.27;80.44;95598.06;5072068;28;20537;-57
2023/09/14 02:08:08;;;;;;;0.50;0.30;;;;;;;19.03;80.71;95579.72;5072387;28;20864;-57
2023/09/14 02:10:36;;;;;;;0.50;0.30;;;;;;;19.09;81.43;95591.09;5072968;28;20960;-57
2023/09/14 02:13:05;;;;;;;0.50;0.40;;;;;;;19.05;82.29;95595.53;5072965;28;20499;-57
2023/09/14 02:15:33;;;;;;;0.60;0.50;;;;;;;19.19;80.65;95594.25;5072153;28;20476;-57
2023/09/14 02:18:03;;;;;;;0.50;0.30;;;;;;;19.12;80.92;95593.16;5072325;28;20448;-57
2023/09/14 02:20:31;;;;;;;0.50;0.30;;;;;;;18.91;83.18;95583.03;5071172;28;20465;-56
2023/09/14 02:23:00;;;;;;;0.40;0.20;;;;;;;18.83;84.79;95586.50;5072067;28;20487;-57
2023/09/14 02:25:28;;;;;;;0.47;0.40;;;;;;;19.08;82.06;95590.28;5071443;28;20470;-56
2023/09/14 02:27:56;;;;;;;0.50;0.30;;;;;;;18.90;83.56;95586.81;5071767;28;20553;-57
2023/09/14 02:30:26;;;;;;;0.50;0.30;;;;;;;18.62;86.12;95590.88;5072162;28;20524;-56
2023/09/14 02:32:54;;;;;;;0.53;0.30;;;;;;;18.61;87.32;95593.88;5072680;28;20465;-57
2023/09/14 02:35:24;;;;;;;0.50;0.30;;;;;;;18.88;83.97;95591.72;5071523;28;20488;-56
2023/09/14 02:37:52;;;;;;;0.40;0.30;;;;;;;19.09;81.76;95591.09;5072030;28;20441;-57
2023/09/14 02:40:21;;;;;;;0.50;0.30;;;;;;;19.10;81.03;95588.06;5071491;28;20433;-57
2023/09/14 02:42:49;;;;;;;1.37;0.87;;;;;;;18.73;84.75;95586.78;5072257;28;20437;-56
2023/09/14 02:45:17;;;;;;;0.50;0.40;;;;;;;18.50;88.41;95579.16;5073458;28;20563;-56
2023/09/14 02:47:45;;;;;;;0.50;0.30;;;;;;;18.38;90.46;95577.06;5072227;28;20441;-57
2023/09/14 02:50:14;;;;;;;0.43;0.30;;;;;;;17.47;97.42;95528.53;5045429;28;20552;-57
2023/09/14 02:52:44;;;;;;;0.50;0.37;;;;;;;17.38;100.00;95581.25;5071418;28;20437;-56
2023/09/14 02:55:12;;;;;;;8.23;0.40;;;;;;;17.16;100.00;95538.41;5071668;28;20835;-57
2023/09/14 02:57:41;;;;;;;0.57;0.50;;;;;;;17.59;100.00;95587.75;5071162;28;20850;-57
2023/09/14 03:00:16;;;;;;;0.50;0.40;;;;;;;17.41;100.00;95588.69;5071724;28;20511;-57
2023/09/14 03:02:45;;;;;;;2.43;0.50;;;;;;;17.59;100.00;95593.13;5071628;28;20441;-57
2023/09/14 03:05:15;;;;;;;0.50;0.40;;;;;;;17.70;100.00;95593.66;5071883;28;20459;-57
2023/09/14 03:07:45;;;;;;;0.60;0.40;;;;;;;17.87;100.00;95595.63;5071526;28;20461;-57
2023/09/14 03:10:13;;;;;;;1.03;0.40;;;;;;;17.71;100.00;95595.22;5071530;28;20506;-57
2023/09/14 03:12:41;;;;;;;0.50;0.30;;;;;;;17.50;100.00;95592.25;5071192;28;20444;-57
2023/09/14 03:15:10;;;;;;;0.50;0.47;;;;;;;17.38;100.00;95589.31;5071190;28;20969;-57
2023/09/14 03:17:38;;;;;;;0.60;0.40;;;;;;;17.48;100.00;95589.06;5071245;28;20913;-57
2023/09/14 03:20:10;;;;;;;0.60;0.40;;;;;;;17.63;100.00;95599.44;5071836;28;20437;-57
2023/09/14 03:22:39;;;;;;;1.47;1.37;;;;;;;17.71;100.00;95603.25;5071443;28;20476;-56
2023/09/14 03:25:09;;;;;;;0.80;0.60;;;;;;;17.89;100.00;95601.47;5070636;28;20976;-56
2023/09/14 03:27:38;;;;;;;0.50;0.30;;;;;;;18.09;100.00;95603.63;5071092;28;20487;-57
2023/09/14 03:30:08;;;;;;;0.70;0.60;;;;;;;18.05;100.00;95592.72;5071131;28;20893;-56
2023/09/14 03:32:37;;;;;;;0.67;0.50;;;;;;;18.22;99.17;95600.03;5071293;28;20843;-57
2023/09/14 03:35:06;;;;;;;0.40;0.30;;;;;;;18.11;99.14;95604.13;5070817;28;20495;-56
2023/09/14 03:37:35;;;;;;;0.40;0.30;;;;;;;18.17;97.69;95600.97;5071181;28;20441;-57
2023/09/14 03:40:08;;;;;;;0.50;0.30;;;;;;;17.83;100.00;95592.78;5070375;28;20444;-56
2023/09/14 03:42:38;;;;;;;0.47;0.33;;;;;;;17.97;98.84;95600.72;5070948;28;20438;-56
2023/09/14 03:45:08;;;;;;;0.40;0.30;;;;;;;18.08;97.51;95610.09;5070568;28;20444;-56
2023/09/14 03:47:36;;;;;;;0.40;0.30;;;;;;;18.20;96.69;95610.28;5071356;28;20450;-56
2023/09/14 03:50:05;;;;;;;0.40;0.30;;;;;;;18.03;98.60;95602.19;5070476;28;20447;-56
2023/09/14 03:52:33;;;;;;;0.60;0.53;;;;;;;17.48;100.00;95602.47;5071037;28;20957;-56
2023/09/14 03:55:02;;;;;;;0.50;0.40;;;;;;;17.76;100.00;95608.50;5070890;28;20934;-56
2023/09/14 03:57:31;;;;;;;0.50;0.40;;;;;;;17.91;99.74;95604.66;5070517;28;20477;-56
2023/09/14 04:00:01;;;;;;;0.40;0.23;;;;;;;17.77;100.00;95602.84;5070702;28;21010;-55
2023/09/14 04:02:29;;;;;;;0.50;0.30;;;;;;;17.38;100.00;95613.41;5069953;28;20479;-56
2023/09/14 04:04:58;;;;;;;0.57;0.37;;;;;;;17.31;100.00;95585.47;5063176;28;20475;-56
2023/09/14 04:07:26;;;;;;;0.60;0.40;;;;;;;17.67;100.00;95607.66;5070628;28;20437;-56
2023/09/14 04:09:54;;;;;;;0.50;0.30;;;;;;;18.00;98.72;95608.94;5075037;28;20464;-56
2023/09/14 04:12:23;;;;;;;0.63;0.60;;;;;;;17.86;100.00;95607.47;5074521;28;20438;-55
2023/09/14 04:14:51;;;;;;;0.50;0.40;;;;;;;17.96;100.00;95599.16;5074832;28;20438;-61
2023/09/14 04:17:20;;;;;;;0.50;0.40;;;;;;;18.41;100.00;95603.28;5073453;28;20478;-61
2023/09/14 04:19:49;;;;;;;0.93;0.93;;;;;;;18.45;99.15;95596.16;5074580;28;20514;-62
2023/09/14 04:22:18;;;;;;;0.70;0.70;;;;;;;18.45;100.00;95600.75;5074608;28;20437;-62
2023/09/14 04:24:47;;;;;;;0.60;0.50;;;;;;;18.65;96.14;95601.00;5073415;28;21013;-62
2023/09/14 04:27:15;;;;;;;0.70;0.70;;;;;;;18.74;94.07;95599.13;5072208;28;20499;-62
2023/09/14 04:29:44;;;;;;;0.80;0.60;;;;;;;18.61;95.90;95591.19;5060609;28;20574;-62
2023/09/14 04:32:12;;;;;;;0.50;0.43;;;;;;;19.04;91.45;95597.41;5070445;28;20560;-63
2023/09/14 04:34:42;;;;;;;0.60;0.40;;;;;;;19.03;91.51;95598.50;5072212;28;20464;-61
2023/09/14 04:37:10;;;;;;;0.60;0.50;;;;;;;18.90;90.94;95602.94;5045619;28;20493;-62
2023/09/14 04:39:39;;;;;;;0.40;0.30;;;;;;;19.00;90.25;95594.56;5072213;28;20441;-61
2023/09/14 04:42:07;;;;;;;0.50;0.30;;;;;;;19.11;89.93;95597.72;5074398;28;20456;-61
2023/09/14 04:44:35;;;;;;;0.50;0.30;;;;;;;18.98;90.43;95594.09;5073779;28;20438;-62
2023/09/14 04:47:05;;;;;;;0.50;0.30;;;;;;;19.21;87.31;95592.03;5073738;28;20434;-62
2023/09/14 04:49:33;;;;;;;0.40;0.30;;;;;;;19.47;86.23;95600.13;5073176;28;20456;-61
2023/09/14 04:52:03;;;;;;;0.40;0.20;;;;;;;19.50;85.55;95604.88;5074022;28;20825;-62
2023/09/14 04:54:31;;;;;;;0.40;0.20;;;;;;;19.44;84.97;95600.75;5074438;28;20441;-62
2023/09/14 04:57:00;;;;;;;0.93;0.93;;;;;;;19.26;88.75;95607.22;5074397;28;20904;-62
2023/09/14 04:59:28;;;;;;;3.80;1.50;;;;;;;19.54;86.04;95605.81;5073643;28;20944;-62
2023/09/14 05:01:56;;;;;;;8.33;0.57;;;;;;;19.61;85.59;95609.59;5073350;28;20441;-62
2023/09/14 05:04:24;;;;;;;3.90;0.50;;;;;;;18.93;84.98;95551.25;5073113;28;20434;-62
2023/09/14 05:06:53;;;;;;;0.60;0.60;;;;;;;19.36;85.60;95585.38;5072823;28;20516;-62
2023/09/14 05:09:23;;;;;;;0.50;0.40;;;;;;;19.68;83.94;95611.00;5072658;28;20465;-61
2023/09/14 05:11:52;;;;;;;1.43;0.73;;;;;;;19.93;81.72;95623.63;5074110;28;20437;-62
2023/09/14 05:14:20;;;;;;;0.40;0.30;;;;;;;19.94;82.28;95625.19;5068735;28;20446;-63
2023/09/14 05:16:48;;;;;;;0.40;0.30;;;;;;;19.84;81.86;95593.25;5066379;28;20496;-63
2023/09/14 05:19:17;;;;;;;0.70;0.30;;;;;;;19.66;81.60;95592.50;5065750;28;20439;-63
2023/09/14 05:21:45;;;;;;;0.53;0.43;;;;;;;19.69;81.09;95554.22;5066418;28;20437;-63
2023/09/14 05:24:14;;;;;;;1.27;0.60;;;;;;;20.21;79.56;95622.88;5071865;28;20437;-62
2023/09/14 05:26:44;;;;;;;0.50;0.40;;;;;;;19.40;78.46;95460.03;5071681;28;20445;-63
2023/09/14 05:29:12;;;;;;;0.63;0.63;;;;;;;20.38;78.38;95624.75;5046377;28;20445;-63
2023/09/14 05:31:40;;;;;;;0.70;0.70;;;;;;;20.30;77.33;95614.81;5071371;28;21252;-63
2023/09/14 05:34:09;;;;;;;6.33;0.30;;;;;;;20.23;77.21;95606.44;5072374;28;20465;-62
2023/09/14 05:36:37;;;;;;;0.50;0.30;;;;;;;20.45;75.90;95622.34;5071863;28;20551;-63
2023/09/14 05:39:06;;;;;;;3.33;1.10;;;;;;;20.04;78.31;95620.25;5061926;28;20490;-63
2023/09/14 05:41:34;;;;;;;0.50;0.37;;;;;;;19.91;78.15;95586.25;5067249;28;20469;-62
2023/09/14 05:44:07;;;;;;;0.70;0.70;;;;;;;20.37;77.33;95619.69;5071466;28;20531;-64
2023/09/14 05:46:36;;;;;;;0.40;0.30;;;;;;;20.82;75.57;95615.34;5071229;28;20506;-64
2023/09/14 05:49:04;;;;;;;0.60;0.60;;;;;;;21.38;72.98;95614.00;5071175;28;20440;-61
2023/09/14 05:51:33;;;;;;;0.43;0.30;;;;;;;21.82;70.93;95604.41;5070940;28;20773;-59
2023/09/14 05:54:02;;;;;;;1.13;0.60;;;;;;;22.05;70.09;95600.22;5071568;28;20457;-58
2023/09/14 05:56:30;;;;;;;0.70;0.70;;;;;;;22.26;68.62;95598.22;5072581;28;20438;-57
2023/09/14 05:58:58;;;;;;;1.27;0.43;;;;;;;22.29;68.37;95589.44;5072600;28;20816;-56
2023/09/14 06:01:28;;;;;;;0.80;0.80;;;;;;;22.34;67.75;95554.09;5073165;28;20468;-56
2023/09/14 06:03:57;;;;;;;0.60;0.53;;;;;;;22.67;66.12;95589.13;5072344;28;20448;-57
2023/09/14 06:06:25;;;;;;;0.60;0.40;;;;;;;23.00;65.48;95597.09;5072865;28;20525;-56
2023/09/14 06:08:54;;;;;;;0.50;0.40;;;;;;;22.91;64.19;95567.50;5072256;28;20445;-56
2023/09/14 06:11:22;;;;;;;7.53;0.50;;;;;;;23.34;63.94;95604.69;5072858;28;20445;-56
2023/09/14 06:13:50;;;;;;;0.63;0.50;;;;;;;23.68;62.65;95592.53;5072564;28;20537;-56
2023/09/14 06:16:19;;;;;;;0.50;0.40;;;;;;;23.88;61.87;95586.88;5072365;28;20438;-56
2023/09/14 06:18:48;;;;;;;0.40;0.40;;;;;;;23.89;61.19;95572.22;5072070;28;20837;-56
2023/09/14 06:21:18;;;;;;;0.50;0.33;;;;;;;24.56;60.47;95587.47;5072358;28;20433;-57
2023/09/14 06:23:46;;;;;;;0.53;0.30;;;;;;;24.89;59.13;95592.53;5072152;28;20490;-56
2023/09/14 06:26:15;;;;;;;0.50;0.50;;;;;;;24.82;58.23;95591.59;5072654;28;20448;-55
2023/09/14 06:28:43;;;;;;;0.50;0.40;;;;;;;24.93;58.11;95587.16;5072193;28;20502;-55
2023/09/14 06:31:13;;;;;;;0.60;0.60;;;;;;;24.69;58.45;95585.44;5072117;28;20445;-55
2023/09/14 06:33:41;;;;;;;2.70;1.83;;;;;;;24.19;58.93;95579.94;5072230;28;20949;-54
2023/09/14 06:36:11;;;;;;;3.60;0.73;;;;;;;24.64;59.60;95586.47;5072252;28;20584;-54
2023/09/14 06:38:39;;;;;;;0.70;0.70;;;;;;;24.79;58.19;95584.94;5071965;28;20473;-54
2023/09/14 06:41:07;;;;;;;0.97;0.97;;;;;;;24.51;59.22;95579.63;5072574;28;20536;-53
2023/09/14 06:43:36;;;;;;;0.70;0.70;;;;;;;25.00;58.18;95569.13;5071726;28;20960;-53
2023/09/14 06:46:04;;;;;;;0.50;0.40;;;;;;;25.41;58.07;95580.44;5072169;28;20476;-54
2023/09/14 06:48:33;;;;;;;0.83;0.83;;;;;;;24.52;57.62;95588.50;5058406;28;20467;-59
2023/09/14 06:51:01;;;;;;;0.73;0.73;;;;;;;24.72;56.98;95535.94;5070659;28;20791;-59
2023/09/14 06:53:31;;;;;;;0.60;0.60;;;;;;;25.15;55.76;95516.75;5071985;28;20453;-58
2023/09/14 06:56:05;;;;;;;3.27;1.03;;;;;;;25.11;56.08;95578.28;5071564;28;20926;-60
2023/09/14 06:58:34;;;;;;;0.70;0.70;;;;;;;25.29;55.76;95567.03;5071670;28;21068;-59
2023/09/14 07:01:04;;;;;;;0.80;0.67;;;;;;;25.32;56.16;95579.88;5071339;28;20526;-58
2023/09/14 07:03:34;;;;;;;0.80;0.60;;;;;;;25.01;55.29;95524.59;5071442;28;20446;-55
2023/09/14 07:06:04;;;;;;;0.80;0.80;;;;;;;25.96;55.02;95574.56;5071653;28;20510;-58
2023/09/14 07:08:33;;;;;;;0.60;0.47;;;;;;;26.61;53.41;95569.09;5060754;28;20965;-57
2023/09/14 07:11:02;;;;;;;0.70;0.60;;;;;;;27.25;52.15;95568.84;5069796;28;20480;-57
2023/09/14 07:13:30;;;;;;;1.03;0.40;;;;;;;27.73;50.48;95566.38;5072029;28;20469;-57
2023/09/14 07:15:58;;;;;;;0.40;0.40;;;;;;;27.80;49.74;95569.16;5071380;28;20504;-57
2023/09/14 07:18:28;;;;;;;0.47;0.40;;;;;;;27.80;50.23;95564.50;5071528;28;20557;-58
2023/09/14 07:20:58;;;;;;;0.70;0.70;;;;;;;27.20;49.86;95558.28;5071295;28;20429;-59
2023/09/14 07:23:27;;;;;;;0.77;0.77;;;;;;;27.39;49.94;95560.91;5071536;28;20491;-58
2023/09/14 07:25:57;;;;;;;1.53;1.43;;;;;;;26.84;50.44;95562.47;5045325;28;20469;-59
2023/09/14 07:28:25;;;;;;;0.60;0.47;;;;;;;26.92;50.92;95563.34;5070297;28;20441;-59
2023/09/14 07:30:54;;;;;;;0.50;0.50;;;;;;;27.13;51.78;95560.94;5071518;28;20516;-59
2023/09/14 07:33:25;;;;;;;1.83;1.73;;;;;;;26.87;50.22;95556.28;5071448;28;20823;-58
2023/09/14 07:35:54;;;;;;;0.80;0.70;;;;;;;27.50;49.37;95561.81;5071308;28;20477;-56
2023/09/14 07:38:22;;;;;;;0.83;0.70;;;;;;;28.12;48.55;95564.84;5071130;28;20477;-56
2023/09/14 07:40:51;;;;;;;0.87;0.87;;;;;;;28.15;47.46;95572.28;5071381;28;20439;-55
2023/09/14 07:43:21;;;;;;;0.80;0.80;;;;;;;28.90;47.40;95553.44;5074048;28;20517;-55
2023/09/14 07:45:49;;;;;;;0.60;0.40;;;;;;;29.34;47.46;95549.78;5075786;28;20445;-55
2023/09/14 07:48:18;;;;;;;0.60;0.40;;;;;;;29.70;44.99;95558.91;5075428;28;20433;-55
2023/09/14 07:50:46;;;;;;;0.50;0.40;;;;;;;29.49;45.35;95551.41;5075551;28;20440;-56
2023/09/14 07:53:15;;;;;;;0.50;0.50;;;;;;;29.88;44.26;95543.38;5073821;28;20901;-55
2023/09/14 07:55:43;;;;;;;1.17;0.70;;;;;;;30.12;44.47;95537.94;5075318;28;20517;-55
2023/09/14 07:58:11;;;;;;;0.43;0.40;;;;;;;31.29;41.83;95538.66;5074998;28;20480;-55
2023/09/14 08:00:41;;;;;;;0.70;0.70;;;;;;;31.67;41.88;95538.91;5075372;28;20524;-55
2023/09/14 08:03:09;;;;;;;0.40;0.30;;;;;;;31.11;41.71;95515.25;5049538;28;20448;-54
2023/09/14 08:05:38;;;;;;;0.40;0.37;;;;;;;31.13;40.83;95493.72;5074386;28;20440;-56
2023/09/14 08:08:07;;;;;;;0.57;0.57;;;;;;;31.19;40.72;95523.03;5074691;28;20528;-55
2023/09/14 08:10:35;;;;;;;0.57;0.57;;;;;;;32.17;39.35;95523.75;5074819;28;20444;-55
2023/09/14 08:13:03;;;;;;;1.13;0.40;;;;;;;31.88;40.22;95517.63;5075147;28;20445;-54
2023/09/14 08:15:32;;;;;;;0.80;0.80;;;;;;;32.06;40.10;95514.81;5074696;28;20535;-55
2023/09/14 08:18:02;;;;;;;0.60;0.57;;;;;;;32.66;39.34;95513.59;5074919;28;20475;-56
2023/09/14 08:20:30;;;;;;;0.40;0.30;;;;;;;33.09;37.65;95504.53;5061186;28;20996;-56
2023/09/14 08:22:58;;;;;;;4.73;2.13;;;;;;;33.06;37.84;95504.59;5075415;28;20432;-56
2023/09/14 08:25:27;;;;;;;0.73;0.40;;;;;;;32.49;37.35;95493.31;5074487;28;20481;-54
2023/09/14 08:27:56;;;;;;;0.90;0.80;;;;;;;32.03;38.55;95490.19;5074584;28;20511;-55
2023/09/14 08:30:24;;;;;;;1.10;1.00;;;;;;;32.87;37.83;95492.19;5074307;28;20460;-56
2023/09/14 08:32:52;;;;;;;0.83;0.83;;;;;;;33.44;37.46;95503.34;5073519;28;21034;-55
2023/09/14 08:35:23;;;;;;;2.60;1.00;;;;;;;33.35;37.45;95488.53;5072163;28;20801;-55
2023/09/14 08:37:54;;;;;;;0.50;0.50;;;;;;;33.15;37.46;95469.94;5072850;28;20444;-56
2023/09/14 08:40:23;;;;;;;0.57;0.57;;;;;;;33.57;36.67;95478.88;5072214;28;20870;-56
2023/09/14 08:42:53;;;;;;;0.40;0.40;;;;;;;33.72;35.44;95460.97;5071834;28;20440;-55
2023/09/14 08:45:24;;;;;;;0.40;0.40;;;;;;;33.92;35.96;95469.31;5072355;28;20436;-55
2023/09/14 08:47:53;;;;;;;0.50;0.50;;;;;;;33.80;34.75;95484.44;5071545;28;20447;-55
2023/09/14 08:50:25;;;;;;;0.87;0.73;;;;;;;33.99;34.40;95463.72;5072361;28;20444;-55
2023/09/14 08:52:54;;;;;;;0.80;0.80;;;;;;;33.99;35.09;95466.47;5071760;28;20852;-55
2023/09/14 08:55:25;;;;;;;0.50;0.50;;;;;;;34.21;34.74;95456.72;5072440;28;20451;-56
2023/09/14 08:57:54;;;;;;;0.50;0.30;;;;;;;34.65;34.23;95448.13;5072248;28;20449;-55
2023/09/14 09:00:28;;;;;;;0.40;0.30;;;;;;;35.13;34.64;95444.84;5072278;28;20441;-55
2023/09/14 09:02:57;;;;;;;0.50;0.43;;;;;;;35.00;34.82;95447.44;5073960;28;20873;-55
2023/09/14 09:05:28;;;;;;;1.03;0.50;;;;;;;34.99;34.99;95440.38;5073414;28;20433;-56
2023/09/14 09:07:58;;;;;;;0.40;0.40;;;;;;;35.39;32.82;95427.38;5073251;28;20944;-55
2023/09/14 09:10:28;;;;;;;0.40;0.33;;;;;;;35.87;33.68;95425.94;5073665;28;20448;-55
2023/09/14 09:12:58;;;;;;;0.93;0.80;;;;;;;34.74;33.22;95433.78;5074004;28;20523;-55
2023/09/14 09:15:32;;;;;;;0.40;0.30;;;;;;;34.85;34.49;95415.09;5073986;28;20198;-54
2023/09/14 09:18:05;;;;;;;1.47;0.63;;;;;;;35.12;33.89;95412.22;5073793;28;20464;-54
2023/09/14 09:20:37;;;;;;;0.50;0.50;;;;;;;34.54;33.62;95419.19;5073587;28;20440;-55
2023/09/14 09:23:06;;;;;;;0.50;0.50;;;;;;;34.23;34.12;95413.06;5074371;28;20198;-55
2023/09/14 09:25:43;;;;;;;0.57;0.50;;;;;;;34.65;34.53;95409.56;5073054;28;20186;-54
2023/09/14 09:28:12;;;;;;;0.50;0.50;;;;;;;34.20;33.81;95409.19;5073840;28;20494;-54
2023/09/14 09:30:40;;;;;;;0.90;0.80;;;;;;;34.25;34.49;95407.91;5047559;28;20861;-55
2023/09/14 09:33:09;;;;;;;0.60;0.60;;;;;;;34.39;34.46;95385.63;5072852;28;20437;-55
2023/09/14 09:35:39;;;;;;;0.60;0.40;;;;;;;34.72;33.15;95398.41;5071557;28;20983;-55
2023/09/14 09:38:13;;;;;;;0.40;0.30;;;;;;;34.83;33.27;95393.47;5073389;28;20789;-57
2023/09/14 09:40:43;;;;;;;0.50;0.40;;;;;;;35.58;32.17;95376.19;5073123;28;20221;-55
2023/09/14 09:43:15;;;;;;;0.53;0.40;;;;;;;35.99;32.27;95383.88;5072551;28;20678;-55
2023/09/14 09:45:46;;;;;;;0.30;0.30;;;;;;;36.45;32.13;95379.97;5072500;28;20448;-56
2023/09/14 09:48:14;;;;;;;0.43;0.43;;;;;;;36.19;32.80;95377.06;5072738;28;20186;-56
2023/09/14 09:50:45;;;;;;;0.37;0.33;;;;;;;36.79;31.34;95369.19;5072894;28;20222;-56
2023/09/14 09:53:15;;;;;;;0.50;0.30;;;;;;;36.80;31.65;95363.25;5073458;28;20205;-54
2023/09/14 09:55:45;;;;;;;0.73;0.73;;;;;;;36.42;30.96;95362.28;5072791;28;20327;-56
2023/09/14 09:58:17;;;;;;;3.13;0.40;;;;;;;36.04;31.30;95362.09;5047363;28;20233;-55
2023/09/14 10:00:46;;;;;;;0.50;0.30;;;;;;;36.51;32.53;95354.16;5072340;28;20222;-54
2023/09/14 10:03:17;;;;;;;0.45;0.45;;;;;;;36.57;30.98;95349.69;5073399;28;20212;-55
2023/09/14 10:05:47;;;;;;;0.50;0.50;;;;;;;37.07;31.18;95357.34;5072414;28;20202;-54
2023/09/14 10:08:20;;;;;;;0.83;0.83;;;;;;;36.73;33.07;95341.34;5072670;28;20202;-56
2023/09/14 10:10:51;;;;;;;0.63;0.63;;;;;;;35.92;31.69;95346.22;5072532;28;20202;-55
2023/09/14 10:13:21;;;;;;;0.40;0.40;;;;;;;35.78;32.29;95343.78;5073182;28;20194;-55
2023/09/14 10:15:53;;;;;;;0.95;0.88;;;;;;;35.79;31.82;95341.81;5071304;28;20662;-55
2023/09/14 10:18:22;;;;;;;0.43;0.43;;;;;;;36.35;32.25;95340.41;5073014;28;20216;-56
2023/09/14 10:20:55;;;;;;;0.50;0.40;;;;;;;36.01;32.37;95305.00;5071858;28;20210;-57
2023/09/14 10:23:24;;;;;;;0.40;0.40;;;;;;;36.51;31.62;95317.53;5072838;28;20631;-56
2023/09/14 10:25:53;;;;;;;0.40;0.40;;;;;;;36.82;32.12;95333.19;5072868;28;20186;-59
2023/09/14 10:28:22;;;;;;;0.55;0.50;;;;;;;37.47;33.16;95322.56;5071222;28;20692;-59
2023/09/14 10:30:52;;;;;;;0.57;0.57;;;;;;;37.28;31.62;95298.66;5072535;28;20201;-60
2023/09/14 10:33:22;;;;;;;0.40;0.40;;;;;;;37.46;31.71;95315.50;5071094;28;20253;-56
2023/09/14 10:35:54;;;;;;;0.30;0.30;;;;;;;37.13;31.61;95305.06;5072258;28;20226;-58
2023/09/14 10:38:24;;;;;;;0.40;0.35;;;;;;;37.13;32.85;95314.16;5072368;28;20243;-59
2023/09/14 10:40:53;;;;;;;0.40;0.40;;;;;;;36.37;33.24;95293.78;5071960;28;20297;-57
2023/09/14 10:43:22;;;;;;;0.50;0.40;;;;;;;36.95;32.15;95313.91;5071873;28;20232;-56
2023/09/14 10:46:00;;;;;;;0.45;0.45;;;;;;;37.35;32.43;95298.44;5071094;28;20579;-56
2023/09/14 10:48:30;;;;;;;0.40;0.30;;;;;;;36.57;33.00;95299.19;5071944;28;20689;-56
2023/09/14 10:51:00;;;;;;;0.55;0.55;;;;;;;36.84;32.56;95297.59;5071174;28;20659;-55
2023/09/14 10:53:29;;;;;;;0.40;0.40;;;;;;;36.57;33.67;95299.97;5070629;28;20237;-55
2023/09/14 10:55:59;;;;;;;0.40;0.30;;;;;;;36.31;33.70;95290.78;5071283;28;20237;-55
2023/09/14 10:58:39;;;;;;;0.40;0.30;;;;;;;36.36;35.28;95294.25;5072198;28;20224;-56
2023/09/14 11:01:12;;;;;;;0.40;0.35;;;;;;;36.36;33.51;95291.47;5070744;28;20213;-56
2023/09/14 11:04:13;;;;;;;0.40;0.30;;;;;;;35.90;33.56;95281.63;5071825;28;20198;-55
2023/09/14 11:06:46;;;;;;;0.30;0.30;;;;;;;35.98;35.07;95286.53;5051969;28;20205;-55
2023/09/14 11:09:16;;;;;;;0.83;0.83;;;;;;;35.30;35.66;95197.63;5071681;28;20643;-55
2023/09/14 11:11:46;;;;;;;0.40;0.30;;;;;;;35.45;34.46;95279.56;5071557;28;20209;-55
2023/09/14 11:14:17;;;;;;;3.67;0.40;;;;;;;35.49;34.30;95265.69;5071523;28;20213;-55
2023/09/14 11:16:48;;;;;;;0.40;0.40;;;;;;;35.37;34.06;95280.16;5071363;28;20198;-55
2023/09/14 11:19:46;;;;;;;0.57;0.57;;;;;;;35.47;33.96;95277.13;5071937;28;20284;-55
2023/09/14 11:22:26;;;;;;;0.37;0.33;;;;;;;35.81;35.00;95271.22;5064194;28;20297;-55
2023/09/14 11:24:56;;;;;;;1.03;0.80;;;;;;;35.59;34.52;95268.22;5071608;28;20194;-55
2023/09/14 11:27:27;;;;;;;0.57;0.37;;;;;;;36.22;33.26;95276.84;5046297;28;20638;-55
2023/09/14 11:29:57;;;;;;;0.40;0.30;;;;;;;36.64;32.82;95276.88;5071375;28;20567;-55
2023/09/14 11:32:29;;;;;;;0.40;0.30;;;;;;;36.51;33.33;95265.81;5071763;28;20667;-55
2023/09/14 11:34:59;;;;;;;0.33;0.30;;;;;;;36.21;33.99;95267.00;5070636;28;20774;-55
2023/09/14 11:37:34;;;;;;;0.63;0.63;;;;;;;35.96;34.83;95266.88;5071536;28;20190;-54
2023/09/14 11:40:13;;;;;;;0.47;0.40;;;;;;;35.79;33.75;95265.34;5070995;28;20271;-54
2023/09/14 11:43:20;;;;;;;0.60;0.60;;;;;;;34.63;34.31;95260.53;5071405;28;20198;-55
2023/09/14 11:46:08;;;;;;;0.40;0.30;;;;;;;34.49;35.62;95233.25;5070667;28;20263;-55
2023/09/14 11:48:43;;;;;;;0.87;0.60;;;;;;;35.11;36.61;95254.41;5071378;28;20210;-55